Map

Track Data

SID SEASON NUMBER BASIN SUBBASIN NAME ISO_TIME NATURE LAT LON WMO_WIND WMO_PRES WMO_AGENCY TRACK_TYPE DIST2LAND LANDFALL IFLAG USA_AGENCY USA_ATCF_ID USA_LAT USA_LON USA_RECORD USA_STATUS USA_WIND USA_PRES USA_SSHS USA_R34_NE USA_R34_SE USA_R34_SW USA_R34_NW USA_R50_NE USA_R50_SE USA_R50_SW USA_R50_NW USA_R64_NE USA_R64_SE USA_R64_SW USA_R64_NW USA_POCI USA_ROCI USA_RMW USA_EYE TOKYO_LAT TOKYO_LON TOKYO_GRADE TOKYO_WIND TOKYO_PRES TOKYO_R50_DIR TOKYO_R50_LONG TOKYO_R50_SHORT TOKYO_R30_DIR TOKYO_R30_LONG TOKYO_R30_SHORT TOKYO_LAND CMA_LAT CMA_LON CMA_CAT CMA_WIND CMA_PRES HKO_LAT HKO_LON HKO_CAT HKO_WIND HKO_PRES NEWDELHI_LAT NEWDELHI_LON NEWDELHI_GRADE NEWDELHI_WIND NEWDELHI_PRES NEWDELHI_CI NEWDELHI_DP NEWDELHI_POCI REUNION_LAT REUNION_LON REUNION_TYPE REUNION_WIND REUNION_PRES REUNION_TNUM REUNION_CI REUNION_RMW REUNION_R34_NE REUNION_R34_SE REUNION_R34_SW REUNION_R34_NW REUNION_R50_NE REUNION_R50_SE REUNION_R50_SW REUNION_R50_NW REUNION_R64_NE REUNION_R64_SE REUNION_R64_SW REUNION_R64_NW BOM_LAT BOM_LON BOM_TYPE BOM_WIND BOM_PRES BOM_TNUM BOM_CI BOM_RMW BOM_R34_NE BOM_R34_SE BOM_R34_SW BOM_R34_NW BOM_R50_NE BOM_R50_SE BOM_R50_SW BOM_R50_NW BOM_R64_NE BOM_R64_SE BOM_R64_SW BOM_R64_NW BOM_ROCI BOM_POCI BOM_EYE BOM_POS_METHOD BOM_PRES_METHOD NADI_LAT NADI_LON NADI_CAT NADI_WIND NADI_PRES WELLINGTON_LAT WELLINGTON_LON WELLINGTON_WIND WELLINGTON_PRES DS824_LAT DS824_LON DS824_STAGE DS824_WIND DS824_PRES TD9636_LAT TD9636_LON TD9636_STAGE TD9636_WIND TD9636_PRES TD9635_LAT TD9635_LON TD9635_WIND TD9635_PRES TD9635_ROCI NEUMANN_LAT NEUMANN_LON NEUMANN_CLASS NEUMANN_WIND NEUMANN_PRES MLC_LAT MLC_LON MLC_CLASS MLC_WIND MLC_PRES USA_GUST BOM_GUST BOM_GUST_PER REUNION_GUST REUNION_GUST_PER USA_SEAHGT USA_SEARAD_NE USA_SEARAD_SE USA_SEARAD_SW USA_SEARAD_NW STORM_SPEED STORM_DIR
1953223N23286 1953 40 NA NA BARBARA 1953-08-11 06:00:00 TS 22.8000 -74.4000 25 hurdat_atl main 203 203 O_____________ hurdat_atl AL031953 22.8000 -74.4000 TD 25 -1 9 349
1953223N23286 1953 40 NA NA BARBARA 1953-08-11 09:00:00 TS 23.2600 -74.4999 main 259 259 P_____________ AL031953 23.2600 -74.4999 TD 27 -1 10 349
1953223N23286 1953 40 NA NA BARBARA 1953-08-11 12:00:00 TS 23.8000 -74.6000 30 hurdat_atl main 315 303 O_____________ hurdat_atl AL031953 23.8000 -74.6000 TD 30 -1 12 352
1953223N23286 1953 40 NA NA BARBARA 1953-08-11 15:00:00 TS 24.4700 -74.7000 main 303 294 P_____________ AL031953 24.4700 -74.7000 TD 35 0 14 353
1953223N23286 1953 40 NA NA BARBARA 1953-08-11 18:00:00 TS 25.2000 -74.8000 40 hurdat_atl main 302 302 O_____________ hurdat_atl AL031953 25.2000 -74.8000 TS 40 0 15 353
1953223N23286 1953 40 NA NA BARBARA 1953-08-11 21:00:00 TS 25.9075 -74.8927 main 320 320 P_____________ AL031953 25.9075 -74.8927 TS 42 0 14 353
1953223N23286 1953 40 NA NA BARBARA 1953-08-12 00:00:00 TS 26.6000 -75.0000 45 hurdat_atl main 343 343 O_____________ hurdat_atl AL031953 26.6000 -75.0000 TS 45 0 14 351
1953223N23286 1953 40 NA NA BARBARA 1953-08-12 03:00:00 TS 27.2650 -75.1425 main 379 371 P_____________ AL031953 27.2650 -75.1425 TS 50 0 13 348
1953223N23286 1953 40 NA NA BARBARA 1953-08-12 06:00:00 TS 27.9000 -75.3000 55 hurdat_atl main 412 412 O_____________ hurdat_atl AL031953 27.9000 -75.3000 TS 55 0 13 348
1953223N23286 1953 40 NA NA BARBARA 1953-08-12 09:00:00 TS 28.5450 -75.4500 main 453 453 P_____________ AL031953 28.5450 -75.4500 TS 57 0 12 348
1953223N23286 1953 40 NA NA BARBARA 1953-08-12 12:00:00 TS 29.1000 -75.6000 60 1005 hurdat_atl main 481 473 O_____________ hurdat_atl AL031953 29.1000 -75.6000 TS 60 1005 0 10 344
1953223N23286 1953 40 NA NA BARBARA 1953-08-12 15:00:00 TS 29.4875 -75.7577 main 469 465 P_____________ AL031953 29.4875 -75.7577 TS 62 1004 0 7 339
1953223N23286 1953 40 NA NA BARBARA 1953-08-12 18:00:00 TS 29.8000 -75.9000 65 hurdat_atl main 469 456 I_____________ hurdat_atl AL031953 29.8000 -75.9000 HU 65 1003 1 7 342
1953223N23286 1953 40 NA NA BARBARA 1953-08-12 21:00:00 TS 30.1425 -76.0077 main 456 418 P_____________ AL031953 30.1425 -76.0077 HU 65 1002 1 7 346
1953223N23286 1953 40 NA NA BARBARA 1953-08-13 00:00:00 TS 30.5000 -76.1000 65 1002 hurdat_atl main 418 374 O_____________ hurdat_atl AL031953 30.5000 -76.1000 HU 65 1002 1 8 347
1953223N23286 1953 40 NA NA BARBARA 1953-08-13 03:00:00 TS 30.8775 -76.2001 main 374 330 P_____________ AL031953 30.8775 -76.2001 HU 65 1000 1 8 348
1953223N23286 1953 40 NA NA BARBARA 1953-08-13 06:00:00 TS 31.3000 -76.3000 65 hurdat_atl main 330 287 I_____________ hurdat_atl AL031953 31.3000 -76.3000 HU 65 998 1 9 348
1953223N23286 1953 40 NA NA BARBARA 1953-08-13 09:00:00 TS 31.7775 -76.4222 main 277 226 P_____________ AL031953 31.7775 -76.4222 HU 65 996 1 10 350
1953223N23286 1953 40 NA NA BARBARA 1953-08-13 12:00:00 TS 32.3000 -76.5000 65 995 hurdat_atl main 226 185 O_____________ hurdat_atl AL031953 32.3000 -76.5000 HU 65 995 1 11 357
1953223N23286 1953 40 NA NA BARBARA 1953-08-13 15:00:00 TS 32.8350 -76.4802 main 185 145 P_____________ AL031953 32.8350 -76.4802 HU 67 991 1 11 5
1953223N23286 1953 40 NA NA BARBARA 1953-08-13 18:00:00 TS 33.4000 -76.4000 70 987 hurdat_atl main 145 80 O_____________ hurdat_atl AL031953 33.4000 -76.4000 HU 70 987 1 12 7
1953223N23286 1953 40 NA NA BARBARA 1953-08-13 21:00:00 TS 34.0341 -76.3070 main 80 29 P_____________ AL031953 34.0341 -76.3070 HU 75 1 12 8
1953223N23286 1953 40 NA NA BARBARA 1953-08-14 00:00:00 TS 34.6000 -76.2000 80 hurdat_atl main 29 14 O_____________ hurdat_atl AL031953 34.6000 -76.2000 HU 80 1 10 10
1953223N23286 1953 40 NA NA BARBARA 1953-08-14 03:00:00 TS 35.0000 -76.1000 80 hurdat_atl main 21 0 O_____________ hurdat_atl AL031953 35.0000 -76.1000 L HU 80 1 10 6
1953223N23286 1953 40 NA NA BARBARA 1953-08-14 05:00:00 TS 35.4000 -76.1000 75 hurdat_atl main 0 0 O_____________ hurdat_atl AL031953 35.4000 -76.1000 L HU 75 1 12 8
1953223N23286 1953 40 NA NA BARBARA 1953-08-14 06:00:00 TS 35.6000 -76.0000 75 hurdat_atl main 0 0 O_____________ hurdat_atl AL031953 35.6000 -76.0000 HU 75 1 11 13
1953223N23286 1953 40 NA NA BARBARA 1953-08-14 09:00:00 TS 36.1000 -75.9000 70 hurdat_atl main 8 0 O_____________ hurdat_atl AL031953 36.1000 -75.9000 L HU 70 1 10 14
1953223N23286 1953 40 NA NA BARBARA 1953-08-14 12:00:00 TS 36.6000 -75.7000 75 hurdat_atl main 17 17 O_____________ hurdat_atl AL031953 36.6000 -75.7000 HU 75 1 11 21
1953223N23286 1953 40 NA NA BARBARA 1953-08-14 15:00:00 TS 37.0922 -75.4142 main 44 41 P_____________ AL031953 37.0922 -75.4142 HU 77 1 12 33
1953223N23286 1953 40 NA NA BARBARA 1953-08-14 18:00:00 TS 37.6000 -74.9000 80 973 hurdat_atl main 57 57 O_____________ hurdat_atl AL031953 37.6000 -74.9000 HU 80 973 1 15 46
1953223N23286 1953 40 NA NA BARBARA 1953-08-14 21:00:00 TS 38.1197 -74.0758 main 89 89 P_____________ AL031953 38.1197 -74.0758 HU 77 1 19 54
1953223N23286 1953 40 NA NA BARBARA 1953-08-15 00:00:00 TS 38.7000 -73.0000 75 hurdat_atl main 142 142 O_____________ hurdat_atl AL031953 38.7000 -73.0000 HU 75 1 22 55
1953223N23286 1953 40 NA NA BARBARA 1953-08-15 03:00:00 TS 39.3768 -71.8165 main 169 155 P_____________ AL031953 39.3768 -71.8165 HU 72 1 24 54
1953223N23286 1953 40 NA NA BARBARA 1953-08-15 06:00:00 TS 40.1000 -70.5000 70 hurdat_atl main 156 121 O_____________ hurdat_atl AL031953 40.1000 -70.5000 HU 70 1 25 55
1953223N23286 1953 40 NA NA BARBARA 1953-08-15 09:00:00 TS 40.7818 -69.1769 main 120 120 P_____________ AL031953 40.7818 -69.1769 HU 65 1 25 57
1953223N23286 1953 40 NA NA BARBARA 1953-08-15 12:00:00 TS 41.5000 -67.7000 60 hurdat_atl main 191 159 O_____________ hurdat_atl AL031953 41.5000 -67.7000 TS 60 0 28 60
1953223N23286 1953 40 NA NA BARBARA 1953-08-15 15:00:00 TS 42.1877 -65.9496 main 145 92 P_____________ AL031953 42.1877 -65.9496 TS 60 0 31 59
1953223N23286 1953 40 NA NA BARBARA 1953-08-15 18:00:00 TS 43.1000 -64.1000 60 hurdat_atl main 96 50 O_____________ hurdat_atl AL031953 43.1000 -64.1000 TS 60 0 36 51
1953223N23286 1953 40 NA NA BARBARA 1953-08-15 21:00:00 TS 44.4486 -62.1338 main 54 0 P_____________ AL031953 44.4486 -62.1338 TS 57 0 39 42
1953223N23286 1953 40 NA NA BARBARA 1953-08-16 00:00:00 ET 46.0000 -60.5000 55 hurdat_atl main 0 0 O_____________ hurdat_atl AL031953 46.0000 -60.5000 EX 55 -4 34 30
1953223N23286 1953 40 NA NA BARBARA 1953-08-16 03:00:00 ET 47.4278 -59.6337 main 31 7 P_____________ AL031953 47.4278 -59.6337 EX 52 -4 31 15
1953223N23286 1953 40 NA NA BARBARA 1953-08-16 06:00:00 ET 49.0000 -59.3000 50 hurdat_atl main 44 0 O_____________ hurdat_atl AL031953 49.0000 -59.3000 EX 50 -4 36 5
1953223N23286 1953 40 NA NA BARBARA 1953-08-16 09:00:00 ET 51.0342 -59.1110 main 0 0 P_____________ AL031953 51.0342 -59.1110 EX 47 -4 38 2
1953223N23286 1953 40 NA NA BARBARA 1953-08-16 12:00:00 ET 52.8000 -59.1000 45 hurdat_atl main 0 0 O_____________ hurdat_atl AL031953 52.8000 -59.1000 EX 45 -4 26 1
1953223N23286 1953 40 NA NA BARBARA 1953-08-16 15:00:00 ET 53.6800 -59.0681 main 0 0 P_____________ AL031953 53.6800 -59.0681 EX 45 -4 12 3
1953223N23286 1953 40 NA NA BARBARA 1953-08-16 18:00:00 ET 54.0000 -59.0000 45 hurdat_atl main 0 O_____________ hurdat_atl AL031953 54.0000 -59.0000 EX 45 -4 6 5

About IBTrACS Database

This database is a web-friendly format of International Best Track Archive for Climate Stewardship (IBTrACS), a global best track data archive curated by NOAA dating back to 1842.

Updated: 2021-12-01